createdAt,value
2023-02-25T00:02:03.471Z,15.20
2023-02-25T00:04:32.874Z,15.80
2023-02-25T00:07:02.295Z,17.30
2023-02-25T00:09:31.084Z,17.30
2023-02-25T00:11:59.778Z,16.10
2023-02-25T00:14:28.972Z,16.10
2023-02-25T00:16:57.661Z,15.90
2023-02-25T00:19:26.674Z,17.10
2023-02-25T00:21:55.459Z,16.10
2023-02-25T00:24:23.968Z,16.50
2023-02-25T00:26:52.434Z,17.30
2023-02-25T00:29:20.825Z,16.80
2023-02-25T00:31:49.563Z,18.70
2023-02-25T00:34:18.319Z,19.40
2023-02-25T00:36:46.722Z,17.20
2023-02-25T00:39:15.522Z,17.10
2023-02-25T00:41:44.475Z,16.30
2023-02-25T00:44:13.320Z,17.40
2023-02-25T00:46:41.809Z,16.60
2023-02-25T00:49:12.139Z,17.50
2023-02-25T00:51:41.800Z,18.70
2023-02-25T00:54:09.978Z,17.90
2023-02-25T00:56:38.363Z,17.60
2023-02-25T00:59:06.847Z,18.70
2023-02-25T01:01:38.192Z,19.00
2023-02-25T01:04:07.293Z,17.00
2023-02-25T01:06:37.857Z,17.20
2023-02-25T01:09:08.009Z,17.90
2023-02-25T01:11:36.724Z,16.80
2023-02-25T01:14:08.328Z,16.50
2023-02-25T01:16:38.188Z,15.10
2023-02-25T01:19:09.883Z,15.90
2023-02-25T01:21:42.072Z,17.40
2023-02-25T01:24:17.257Z,16.90
2023-02-25T01:26:47.031Z,17.50
2023-02-25T01:29:22.461Z,17.70
2023-02-25T01:31:56.368Z,16.10
2023-02-25T01:36:53.460Z,17.80
2023-02-25T01:39:26.272Z,17.40
2023-02-25T01:41:58.524Z,17.00
2023-02-25T01:44:32.838Z,16.70
2023-02-25T01:47:01.834Z,16.90
2023-02-25T01:49:55.072Z,16.00
2023-02-25T01:52:25.916Z,16.70
2023-02-25T01:54:58.314Z,18.90
2023-02-25T01:57:27.029Z,18.30
2023-02-25T01:59:55.752Z,19.60
2023-02-25T02:02:29.008Z,18.90
2023-02-25T02:04:57.464Z,19.30
2023-02-25T02:07:25.745Z,18.10
2023-02-25T02:09:56.804Z,19.20
2023-02-25T02:12:36.249Z,19.10
2023-02-25T02:15:11.370Z,19.20
2023-02-25T02:17:44.755Z,18.30
2023-02-25T02:20:25.119Z,19.80
2023-02-25T02:23:27.580Z,18.80
2023-02-25T02:26:04.966Z,17.70
2023-02-25T02:29:03.036Z,18.10
2023-02-25T02:31:56.044Z,18.20
2023-02-25T02:34:50.172Z,17.50
2023-02-25T02:37:27.845Z,18.60
2023-02-25T02:40:15.566Z,18.10
2023-02-25T02:43:07.076Z,19.20
2023-02-25T02:45:57.273Z,17.80
2023-02-25T02:48:39.466Z,19.60
2023-02-25T02:51:14.802Z,18.20
2023-02-25T02:53:52.702Z,19.10
2023-02-25T02:56:25.274Z,18.10
2023-02-25T02:58:59.722Z,19.00
2023-02-25T03:01:40.258Z,20.40
2023-02-25T03:04:14.529Z,19.30
2023-02-25T03:06:48.288Z,18.20
2023-02-25T03:09:47.476Z,19.50
2023-02-25T03:12:16.567Z,19.60
2023-02-25T03:14:44.968Z,19.40
2023-02-25T03:17:27.362Z,20.80
2023-02-25T03:20:29.179Z,19.10
2023-02-25T03:23:04.433Z,19.30
2023-02-25T03:25:47.481Z,19.10
2023-02-25T03:28:32.689Z,19.10
2023-02-25T03:31:21.789Z,19.10
2023-02-25T03:34:16.285Z,20.10
2023-02-25T03:36:59.706Z,19.90
2023-02-25T03:39:32.299Z,20.30
2023-02-25T03:42:04.807Z,20.40
2023-02-25T03:44:39.706Z,19.60
2023-02-25T03:47:11.052Z,18.10
2023-02-25T03:52:21.236Z,20.10
2023-02-25T03:54:56.877Z,18.20
2023-02-25T03:57:34.838Z,19.70
2023-02-25T04:00:15.749Z,18.80
2023-02-25T04:02:46.751Z,18.80
2023-02-25T04:05:17.839Z,20.00
2023-02-25T04:07:46.438Z,17.20
2023-02-25T04:10:17.775Z,18.00
2023-02-25T04:12:47.693Z,19.80
2023-02-25T04:15:15.974Z,19.80
2023-02-25T04:17:45.588Z,19.70
2023-02-25T04:20:16.798Z,19.60
2023-02-25T04:22:45.135Z,19.40
2023-02-25T04:25:13.508Z,20.40
2023-02-25T04:27:41.683Z,19.80
2023-02-25T04:30:10.865Z,20.10
2023-02-25T04:32:39.312Z,19.90
2023-02-25T04:35:12.374Z,20.60
2023-02-25T04:37:42.094Z,21.30
2023-02-25T04:40:15.363Z,20.60
2023-02-25T04:42:44.172Z,20.10
2023-02-25T04:45:13.426Z,22.10
2023-02-25T04:47:42.391Z,21.60
2023-02-25T04:50:11.682Z,19.70
2023-02-25T04:52:40.067Z,19.80
2023-02-25T04:55:10.060Z,19.10
2023-02-25T04:57:42.793Z,20.30
2023-02-25T05:00:24.383Z,20.90
2023-02-25T05:02:52.839Z,20.50
2023-02-25T05:05:21.337Z,20.40
2023-02-25T05:07:49.815Z,20.90
2023-02-25T05:10:18.407Z,18.30
2023-02-25T05:12:46.784Z,19.00
2023-02-25T05:15:16.397Z,19.30
2023-02-25T05:17:44.679Z,19.10
2023-02-25T05:20:13.394Z,20.00
2023-02-25T05:22:42.579Z,18.80
2023-02-25T05:25:11.594Z,19.70
2023-02-25T05:27:40.061Z,21.30
2023-02-25T05:30:09.918Z,19.80
2023-02-25T05:32:39.087Z,19.70
2023-02-25T05:35:09.462Z,21.20
2023-02-25T05:37:38.442Z,21.10
2023-02-25T05:40:09.833Z,20.40
2023-02-25T05:42:38.044Z,22.40
2023-02-25T05:45:11.436Z,19.60
2023-02-25T05:47:39.934Z,21.00
2023-02-25T05:50:09.370Z,20.60
2023-02-25T05:52:38.231Z,21.20
2023-02-25T05:55:09.608Z,19.70
2023-02-25T05:57:38.341Z,18.90
2023-02-25T06:00:09.934Z,20.80
2023-02-25T06:02:42.214Z,20.30
2023-02-25T06:05:10.591Z,19.70
2023-02-25T06:07:38.870Z,19.20
2023-02-25T06:10:10.054Z,19.90
2023-02-25T06:12:39.016Z,19.90
2023-02-25T06:15:08.172Z,21.10
2023-02-25T06:17:36.603Z,20.00
2023-02-25T06:20:06.379Z,18.40
2023-02-25T06:22:34.605Z,17.30
2023-02-25T06:25:03.405Z,20.70
2023-02-25T06:27:31.895Z,18.00
2023-02-25T06:30:02.699Z,19.10
2023-02-25T06:32:31.151Z,20.20
2023-02-25T06:34:59.800Z,19.10
2023-02-25T06:37:28.385Z,20.20
2023-02-25T06:39:56.667Z,20.20
2023-02-25T06:42:25.461Z,22.50
2023-02-25T06:44:54.062Z,19.60
2023-02-25T06:47:23.464Z,20.60
2023-02-25T06:49:51.950Z,19.80
2023-02-25T06:52:20.331Z,20.20
2023-02-25T06:54:48.622Z,22.80
2023-02-25T06:57:17.522Z,21.30
2023-02-25T06:59:45.995Z,21.40
2023-02-25T07:02:14.784Z,20.60
2023-02-25T07:04:44.192Z,19.80
2023-02-25T07:07:12.576Z,20.70
2023-02-25T07:09:41.168Z,22.80
2023-02-25T07:12:09.670Z,21.60
2023-02-25T07:14:38.244Z,22.00
2023-02-25T07:17:06.726Z,22.90
2023-02-25T07:19:35.018Z,26.20
2023-02-25T07:22:05.445Z,23.90
2023-02-25T07:24:33.932Z,26.10
2023-02-25T07:27:02.311Z,18.00
2023-02-25T07:29:30.614Z,15.20
2023-02-25T07:32:00.346Z,14.60
2023-02-25T07:34:28.808Z,14.70
2023-02-25T07:36:57.079Z,15.70
2023-02-25T07:39:25.918Z,12.50
2023-02-25T07:41:54.469Z,15.20
2023-02-25T07:44:22.952Z,13.40
2023-02-25T07:46:51.646Z,13.30
2023-02-25T07:49:20.025Z,12.40
2023-02-25T07:51:48.210Z,12.30
2023-02-25T07:54:17.516Z,12.10
2023-02-25T07:56:46.508Z,11.50
2023-02-25T07:59:15.202Z,11.10
2023-02-25T08:01:44.450Z,11.00
2023-02-25T08:04:12.924Z,10.80
2023-02-25T08:06:42.204Z,10.90
2023-02-25T08:09:12.471Z,12.30
2023-02-25T08:11:41.729Z,9.90
2023-02-25T08:14:11.383Z,9.40
2023-02-25T08:16:40.136Z,9.80
2023-02-25T08:19:08.534Z,9.40
2023-02-25T08:21:37.665Z,9.30
2023-02-25T08:24:07.493Z,10.60
2023-02-25T08:26:35.925Z,9.20
2023-02-25T08:29:04.893Z,10.00
2023-02-25T08:31:34.255Z,8.40
2023-02-25T08:34:02.625Z,7.90
2023-02-25T08:36:31.659Z,7.50
2023-02-25T08:39:01.727Z,6.80
2023-02-25T08:41:30.639Z,7.00
2023-02-25T08:44:01.445Z,8.20
2023-02-25T08:46:32.966Z,7.80
2023-02-25T08:49:02.133Z,7.60
2023-02-25T08:51:34.750Z,7.20
2023-02-25T08:54:09.229Z,7.90
2023-02-25T08:56:44.730Z,8.00
2023-02-25T08:59:16.128Z,9.70
2023-02-25T09:01:45.148Z,7.00
2023-02-25T09:04:16.980Z,8.80
2023-02-25T09:06:48.441Z,8.30
2023-02-25T09:09:18.981Z,7.70
2023-02-25T09:11:48.882Z,7.60
2023-02-25T09:14:18.316Z,7.40
2023-02-25T09:16:46.606Z,7.40
2023-02-25T09:19:17.495Z,7.10
2023-02-25T09:21:50.465Z,7.40
2023-02-25T09:24:19.248Z,7.10
2023-02-25T09:26:48.119Z,8.30
2023-02-25T09:29:16.846Z,7.90
2023-02-25T09:31:45.297Z,7.90
2023-02-25T09:34:14.615Z,7.40
2023-02-25T09:36:43.309Z,8.80
2023-02-25T09:39:13.083Z,8.30
2023-02-25T09:41:41.493Z,7.40
2023-02-25T09:44:36.374Z,7.80
2023-02-25T09:47:21.584Z,7.50
2023-02-25T09:50:14.030Z,7.10
2023-02-25T09:52:45.835Z,7.40
2023-02-25T09:55:30.803Z,8.00
2023-02-25T09:58:23.652Z,7.40
2023-02-25T10:01:04.867Z,7.70
2023-02-25T10:03:45.796Z,8.60
2023-02-25T10:06:50.909Z,7.50
2023-02-25T10:09:31.786Z,7.40
2023-02-25T10:12:14.170Z,8.20
2023-02-25T10:15:06.212Z,14.20
2023-02-25T10:17:51.297Z,15.00
2023-02-25T10:20:39.233Z,15.10
2023-02-25T10:23:28.169Z,15.10
2023-02-25T10:25:58.706Z,16.80
2023-02-25T10:28:29.950Z,16.90
2023-02-25T10:31:08.236Z,17.30
2023-02-25T10:33:40.627Z,17.40
2023-02-25T10:36:21.703Z,16.90
2023-02-25T10:38:52.961Z,9.40
2023-02-25T10:41:25.466Z,7.30
2023-02-25T10:43:55.846Z,8.00
2023-02-25T10:46:39.257Z,7.20
2023-02-25T10:49:23.116Z,7.40
2023-02-25T10:52:15.151Z,6.90
2023-02-25T10:54:52.215Z,8.30
2023-02-25T10:57:28.291Z,8.30
2023-02-25T11:00:21.749Z,7.30
2023-02-25T11:02:51.880Z,8.40
2023-02-25T11:05:49.795Z,7.60
2023-02-25T11:08:31.642Z,7.40
2023-02-25T11:11:06.797Z,9.40
2023-02-25T11:13:37.257Z,8.00
2023-02-25T11:16:14.139Z,7.90
2023-02-25T11:18:42.868Z,8.80
2023-02-25T11:21:14.482Z,7.70
2023-02-25T11:23:43.429Z,7.20
2023-02-25T11:26:30.364Z,7.50
2023-02-25T11:29:19.171Z,8.00
2023-02-25T11:32:01.656Z,7.60
2023-02-25T11:34:32.022Z,7.80
2023-02-25T11:37:31.504Z,9.10
2023-02-25T11:39:59.998Z,8.50
2023-02-25T11:42:30.491Z,8.30
2023-02-25T11:45:04.849Z,8.90
2023-02-25T11:47:38.607Z,9.40
2023-02-25T11:53:13.424Z,8.40
2023-02-25T11:55:52.414Z,8.70
2023-02-25T11:58:51.499Z,10.80
2023-02-25T12:01:37.581Z,8.20
2023-02-25T12:04:08.732Z,9.70
2023-02-25T12:07:09.151Z,10.60
2023-02-25T12:10:22.144Z,8.40
2023-02-25T12:13:23.868Z,9.50
2023-02-25T12:16:10.865Z,8.90
2023-02-25T12:18:50.434Z,9.50
2023-02-25T12:21:37.344Z,9.70
2023-02-25T12:24:37.668Z,9.70
2023-02-25T12:27:34.408Z,10.60
2023-02-25T12:30:43.009Z,9.40
2023-02-25T12:34:05.829Z,9.80
2023-02-25T12:36:49.788Z,11.60
2023-02-25T12:39:43.725Z,10.40
2023-02-25T12:42:39.229Z,12.70
2023-02-25T12:45:43.150Z,10.90
2023-02-25T12:48:36.778Z,10.60
2023-02-25T12:51:35.861Z,9.90
2023-02-25T12:54:04.362Z,10.40
2023-02-25T12:56:53.715Z,9.70
2023-02-25T12:59:22.723Z,10.00
2023-02-25T13:02:13.102Z,9.60
2023-02-25T13:05:00.010Z,10.50
2023-02-25T13:07:37.302Z,9.70
2023-02-25T13:10:30.563Z,10.10
2023-02-25T13:13:20.443Z,9.80
2023-02-25T13:16:35.712Z,9.80
2023-02-25T13:19:16.131Z,10.80
2023-02-25T13:22:00.898Z,10.60
2023-02-25T13:24:54.139Z,9.90
2023-02-25T13:27:39.889Z,10.80
2023-02-25T13:30:12.204Z,11.20
2023-02-25T13:33:11.897Z,10.90
2023-02-25T13:36:05.453Z,10.50
2023-02-25T13:39:02.081Z,10.40
2023-02-25T13:41:31.303Z,9.20
2023-02-25T13:44:22.801Z,10.20
2023-02-25T13:47:21.370Z,10.00
2023-02-25T13:50:14.524Z,8.90
2023-02-25T13:52:57.597Z,8.60
2023-02-25T13:56:01.032Z,9.00
2023-02-25T13:58:47.721Z,9.80
2023-02-25T14:01:35.270Z,8.90
2023-02-25T14:04:28.394Z,9.40
2023-02-25T14:07:21.132Z,7.10
2023-02-25T14:10:14.492Z,4.70
2023-02-25T14:13:11.537Z,3.60
2023-02-25T14:15:55.758Z,1.90
2023-02-25T14:18:45.645Z,1.90
2023-02-25T14:21:41.660Z,1.90
2023-02-25T14:24:28.140Z,2.40
2023-02-25T14:27:29.605Z,2.10
2023-02-25T14:30:24.651Z,1.90
2023-02-25T14:33:11.902Z,2.90
2023-02-25T14:36:20.647Z,1.80
2023-02-25T14:38:51.559Z,2.20
2023-02-25T14:41:41.284Z,2.30
2023-02-25T14:44:24.753Z,2.50
2023-02-25T14:47:16.568Z,2.00
2023-02-25T14:50:00.406Z,1.90
2023-02-25T14:55:22.548Z,2.80
2023-02-25T14:58:16.285Z,1.40
2023-02-25T15:01:04.753Z,2.20
2023-02-25T15:03:54.729Z,3.00
2023-02-25T15:06:41.227Z,2.80
2023-02-25T15:09:38.984Z,2.60
2023-02-25T15:12:36.734Z,3.00
2023-02-25T15:15:37.782Z,2.40
2023-02-25T15:18:26.922Z,2.70
2023-02-25T15:20:57.112Z,2.60
2023-02-25T15:23:49.489Z,3.20
2023-02-25T15:27:13.554Z,3.10
2023-02-25T15:29:45.604Z,3.70
2023-02-25T15:32:17.166Z,5.00
2023-02-25T15:35:02.532Z,5.20
2023-02-25T15:37:35.620Z,7.80
2023-02-25T15:40:16.696Z,8.80
2023-02-25T15:42:55.605Z,6.20
2023-02-25T15:45:27.340Z,2.60
2023-02-25T15:48:08.554Z,1.70
2023-02-25T15:50:42.874Z,2.00
2023-02-25T15:53:39.614Z,3.60
2023-02-25T15:56:08.709Z,2.30
2023-02-25T15:59:00.659Z,1.10
2023-02-25T16:01:43.041Z,1.30
2023-02-25T16:04:50.325Z,1.30
2023-02-25T16:07:21.862Z,1.40
2023-02-25T16:09:55.569Z,1.20
2023-02-25T16:12:25.181Z,1.40
2023-02-25T16:14:55.523Z,2.40
2023-02-25T16:17:30.861Z,1.90
2023-02-25T16:20:15.020Z,1.80
2023-02-25T16:22:46.051Z,2.10
2023-02-25T16:25:19.134Z,1.80
2023-02-25T16:28:01.756Z,1.60
2023-02-25T16:30:41.565Z,1.90
2023-02-25T16:33:20.727Z,1.90
2023-02-25T16:36:06.867Z,1.80
2023-02-25T16:39:06.019Z,3.60
2023-02-25T16:41:38.705Z,2.90
2023-02-25T16:44:08.684Z,3.20
2023-02-25T16:46:39.622Z,3.10
2023-02-25T16:49:11.923Z,3.70
2023-02-25T16:51:42.549Z,3.80
2023-02-25T16:54:41.652Z,2.70
2023-02-25T16:57:22.001Z,2.70
2023-02-25T16:59:52.575Z,2.50
2023-02-25T17:02:25.898Z,3.10
2023-02-25T17:07:27.987Z,2.70
2023-02-25T17:10:02.233Z,3.40
2023-02-25T17:12:33.454Z,2.60
2023-02-25T17:15:06.166Z,3.00
2023-02-25T17:17:38.813Z,2.70
2023-02-25T17:20:16.329Z,2.20
2023-02-25T17:22:45.640Z,2.30
2023-02-25T17:25:18.333Z,1.40
2023-02-25T17:27:50.085Z,1.20
2023-02-25T17:30:37.043Z,1.10
2023-02-25T17:33:06.341Z,1.30
2023-02-25T17:35:36.120Z,1.10
2023-02-25T17:38:04.915Z,1.50
2023-02-25T17:40:33.601Z,1.50
2023-02-25T17:43:20.982Z,2.00
2023-02-25T17:45:54.892Z,4.60
2023-02-25T17:51:06.039Z,3.20
2023-02-25T17:53:46.793Z,3.10
2023-02-25T17:56:25.598Z,3.30
2023-02-25T17:59:03.890Z,3.40
2023-02-25T18:01:47.251Z,3.10
2023-02-25T18:08:17.619Z,3.80
2023-02-25T18:10:48.680Z,4.10
2023-02-25T18:13:21.597Z,4.90
2023-02-25T18:16:28.799Z,5.60
2023-02-25T18:18:59.991Z,5.10
2023-02-25T18:21:29.165Z,3.80
2023-02-25T18:24:02.271Z,2.40
2023-02-25T18:26:30.789Z,2.80
2023-02-25T18:29:10.311Z,2.60
2023-02-25T18:31:38.651Z,2.50
2023-02-25T18:34:07.094Z,2.50
2023-02-25T18:36:35.591Z,2.60
2023-02-25T18:39:04.993Z,3.10
2023-02-25T18:41:33.774Z,2.90
2023-02-25T18:44:02.411Z,2.70
2023-02-25T18:46:31.025Z,2.30
2023-02-25T18:49:00.361Z,2.50
2023-02-25T18:51:28.650Z,2.60
2023-02-25T18:53:56.923Z,2.90
2023-02-25T18:56:25.816Z,2.40
2023-02-25T18:58:56.741Z,3.20
2023-02-25T19:01:33.160Z,2.80
2023-02-25T19:04:01.424Z,3.00
2023-02-25T19:06:32.109Z,2.90
2023-02-25T19:09:01.060Z,2.90
2023-02-25T19:11:33.866Z,2.50
2023-02-25T19:14:03.246Z,2.40
2023-02-25T19:16:31.862Z,2.90
2023-02-25T19:19:00.421Z,2.50
2023-02-25T19:21:29.011Z,2.60
2023-02-25T19:23:57.498Z,2.10
2023-02-25T19:26:26.080Z,2.70
2023-02-25T19:28:54.895Z,2.50
2023-02-25T19:31:23.192Z,2.40
2023-02-25T19:33:53.494Z,3.30
2023-02-25T19:36:22.405Z,2.80
2023-02-25T19:38:51.408Z,3.10
2023-02-25T19:41:20.285Z,3.40
2023-02-25T19:43:49.073Z,3.70
2023-02-25T19:46:18.218Z,4.10
2023-02-25T19:48:46.661Z,3.10
2023-02-25T19:51:15.716Z,2.80
2023-02-25T19:53:45.800Z,3.40
2023-02-25T19:56:14.069Z,2.80
2023-02-25T19:58:42.754Z,3.10
2023-02-25T20:01:11.212Z,2.80
2023-02-25T20:03:39.874Z,3.10
2023-02-25T20:06:13.421Z,3.60
2023-02-25T20:08:41.924Z,2.70
2023-02-25T20:11:11.384Z,3.50
2023-02-25T20:13:40.025Z,3.10
2023-02-25T20:16:09.488Z,2.40
2023-02-25T20:18:38.713Z,2.90
2023-02-25T20:21:07.422Z,16.60
2023-02-25T20:23:35.728Z,14.00
2023-02-25T20:26:07.404Z,6.60
2023-02-25T20:28:36.489Z,6.50
2023-02-25T20:31:11.297Z,6.40
2023-02-25T20:33:40.698Z,6.30
2023-02-25T20:36:25.759Z,3.60
2023-02-25T20:39:19.225Z,3.30
2023-02-25T20:41:48.234Z,2.80
2023-02-25T20:44:16.916Z,2.70
2023-02-25T20:46:45.609Z,3.80
2023-02-25T20:49:17.064Z,3.10
2023-02-25T20:51:47.587Z,3.40
2023-02-25T20:54:18.025Z,3.60
2023-02-25T20:56:47.845Z,3.30
2023-02-25T20:59:17.625Z,3.30
2023-02-25T21:01:45.945Z,2.90
2023-02-25T21:04:14.366Z,3.00
2023-02-25T21:06:43.423Z,3.90
2023-02-25T21:09:11.918Z,4.10
2023-02-25T21:11:40.292Z,3.40
2023-02-25T21:14:10.625Z,4.30
2023-02-25T21:16:40.904Z,3.60
2023-02-25T21:19:09.444Z,3.90
2023-02-25T21:21:38.285Z,3.30
2023-02-25T21:24:10.355Z,3.60
2023-02-25T21:26:39.558Z,3.50
2023-02-25T21:29:09.018Z,4.80
2023-02-25T21:31:38.243Z,4.80
2023-02-25T21:34:06.915Z,5.00
2023-02-25T21:36:38.131Z,4.80
2023-02-25T21:39:09.481Z,4.80
2023-02-25T21:41:44.069Z,4.40
2023-02-25T21:44:13.853Z,4.20
2023-02-25T21:46:42.913Z,3.80
2023-02-25T21:49:11.445Z,4.30
2023-02-25T21:51:40.406Z,4.90
2023-02-25T21:54:09.235Z,6.20
2023-02-25T21:56:40.726Z,5.40
2023-02-25T21:59:09.960Z,6.10
2023-02-25T22:01:41.321Z,5.50
2023-02-25T22:04:10.518Z,6.80
2023-02-25T22:06:38.948Z,5.30
2023-02-25T22:09:07.240Z,6.10
2023-02-25T22:11:37.262Z,6.40
2023-02-25T22:14:07.767Z,6.00
2023-02-25T22:16:38.253Z,6.40
2023-02-25T22:19:07.357Z,5.50
2023-02-25T22:21:36.273Z,6.20
2023-02-25T22:24:06.153Z,6.40
2023-02-25T22:26:36.370Z,6.40
2023-02-25T22:29:08.023Z,6.30
2023-02-25T22:31:37.454Z,5.60
2023-02-25T22:34:06.527Z,5.50
2023-02-25T22:36:35.107Z,7.00
2023-02-25T22:39:05.848Z,5.90
2023-02-25T22:41:34.433Z,5.80
2023-02-25T22:44:03.888Z,5.40
2023-02-25T22:46:36.259Z,5.10
2023-02-25T22:49:07.559Z,5.60
2023-02-25T22:51:42.269Z,6.30
2023-02-25T22:54:12.706Z,5.60
2023-02-25T22:56:42.930Z,5.40
2023-02-25T22:59:12.160Z,5.90
2023-02-25T23:01:41.004Z,4.90
2023-02-25T23:04:09.441Z,5.50
2023-02-25T23:06:44.143Z,5.70
2023-02-25T23:09:14.399Z,5.40
2023-02-25T23:11:44.346Z,6.10
2023-02-25T23:14:14.495Z,5.90
2023-02-25T23:16:46.404Z,5.60
2023-02-25T23:19:17.454Z,9.90
2023-02-25T23:21:46.843Z,7.00
2023-02-25T23:24:18.778Z,7.60
2023-02-25T23:26:50.845Z,9.30
2023-02-25T23:29:21.364Z,9.00
2023-02-25T23:31:50.494Z,6.70
2023-02-25T23:34:23.321Z,8.10
2023-02-25T23:36:56.054Z,6.70
2023-02-25T23:39:25.114Z,5.50
2023-02-25T23:41:53.582Z,6.80
2023-02-25T23:44:22.167Z,7.30
2023-02-25T23:46:50.751Z,6.50
2023-02-25T23:49:20.163Z,6.10
2023-02-25T23:51:48.859Z,5.30
2023-02-25T23:54:22.658Z,4.80
2023-02-25T23:59:22.781Z,4.80
